sensor_id;sensor_type;location;lat;lon;timestamp;P1;durP1;ratioP1;P2;durP2;ratioP2
54167;SDS011;40072;50.958;3.592;2022-10-31T00:02:10;12.25;;;6.03;;
54167;SDS011;40072;50.958;3.592;2022-10-31T00:04:35;14.60;;;6.20;;
54167;SDS011;40072;50.958;3.592;2022-10-31T00:07:01;10.25;;;5.68;;
54167;SDS011;40072;50.958;3.592;2022-10-31T00:09:27;16.33;;;6.60;;
54167;SDS011;40072;50.958;3.592;2022-10-31T00:11:52;13.85;;;6.18;;
54167;SDS011;40072;50.958;3.592;2022-10-31T00:14:18;11.48;;;6.82;;
54167;SDS011;40072;50.958;3.592;2022-10-31T00:16:43;12.13;;;7.07;;
54167;SDS011;40072;50.958;3.592;2022-10-31T00:19:09;11.45;;;6.88;;
54167;SDS011;40072;50.958;3.592;2022-10-31T00:21:35;12.23;;;6.90;;
54167;SDS011;40072;50.958;3.592;2022-10-31T00:24:00;15.70;;;7.65;;
54167;SDS011;40072;50.958;3.592;2022-10-31T00:26:27;11.18;;;7.32;;
54167;SDS011;40072;50.958;3.592;2022-10-31T00:28:53;10.50;;;6.75;;
54167;SDS011;40072;50.958;3.592;2022-10-31T00:31:19;14.23;;;7.35;;
54167;SDS011;40072;50.958;3.592;2022-10-31T00:33:45;10.07;;;6.60;;
54167;SDS011;40072;50.958;3.592;2022-10-31T00:36:12;18.17;;;6.88;;
54167;SDS011;40072;50.958;3.592;2022-10-31T00:41:06;11.30;;;6.93;;
54167;SDS011;40072;50.958;3.592;2022-10-31T00:43:32;11.35;;;7.38;;
54167;SDS011;40072;50.958;3.592;2022-10-31T00:45:58;18.20;;;8.10;;
54167;SDS011;40072;50.958;3.592;2022-10-31T00:48:23;19.38;;;8.32;;
54167;SDS011;40072;50.958;3.592;2022-10-31T00:50:49;32.33;;;11.50;;
54167;SDS011;40072;50.958;3.592;2022-10-31T00:53:14;20.80;;;7.60;;
54167;SDS011;40072;50.958;3.592;2022-10-31T00:55:40;9.60;;;6.25;;
54167;SDS011;40072;50.958;3.592;2022-10-31T00:58:06;7.13;;;5.35;;
54167;SDS011;40072;50.958;3.592;2022-10-31T01:00:31;11.65;;;6.70;;
54167;SDS011;40072;50.958;3.592;2022-10-31T01:02:57;20.70;;;7.45;;
54167;SDS011;40072;50.958;3.592;2022-10-31T01:05:23;13.63;;;7.82;;
54167;SDS011;40072;50.958;3.592;2022-10-31T01:07:48;21.98;;;8.57;;
54167;SDS011;40072;50.958;3.592;2022-10-31T01:10:14;11.30;;;7.32;;
54167;SDS011;40072;50.958;3.592;2022-10-31T01:12:42;13.43;;;7.45;;
54167;SDS011;40072;50.958;3.592;2022-10-31T01:15:09;14.05;;;7.70;;
54167;SDS011;40072;50.958;3.592;2022-10-31T01:17:36;15.23;;;8.20;;
54167;SDS011;40072;50.958;3.592;2022-10-31T01:20:03;16.40;;;7.20;;
54167;SDS011;40072;50.958;3.592;2022-10-31T01:22:30;20.33;;;9.88;;
54167;SDS011;40072;50.958;3.592;2022-10-31T01:24:56;20.33;;;9.85;;
54167;SDS011;40072;50.958;3.592;2022-10-31T01:27:21;12.20;;;7.38;;
54167;SDS011;40072;50.958;3.592;2022-10-31T01:29:47;15.45;;;8.57;;
54167;SDS011;40072;50.958;3.592;2022-10-31T01:32:13;16.10;;;7.28;;
54167;SDS011;40072;50.958;3.592;2022-10-31T01:34:38;11.50;;;6.47;;
54167;SDS011;40072;50.958;3.592;2022-10-31T01:37:04;19.13;;;8.40;;
54167;SDS011;40072;50.958;3.592;2022-10-31T01:39:30;16.73;;;7.78;;
54167;SDS011;40072;50.958;3.592;2022-10-31T01:41:55;12.32;;;7.07;;
54167;SDS011;40072;50.958;3.592;2022-10-31T01:49:36;22.25;;;11.70;;
54167;SDS011;40072;50.958;3.592;2022-10-31T01:57:30;25.35;;;13.98;;
54167;SDS011;40072;50.958;3.592;2022-10-31T01:59:59;29.73;;;14.65;;
54167;SDS011;40072;50.958;3.592;2022-10-31T02:02:28;29.85;;;14.18;;
54167;SDS011;40072;50.958;3.592;2022-10-31T02:04:55;28.73;;;13.65;;
54167;SDS011;40072;50.958;3.592;2022-10-31T02:07:25;19.08;;;10.77;;
54167;SDS011;40072;50.958;3.592;2022-10-31T02:09:55;21.85;;;11.57;;
54167;SDS011;40072;50.958;3.592;2022-10-31T02:12:22;22.10;;;11.45;;
54167;SDS011;40072;50.958;3.592;2022-10-31T02:14:49;26.65;;;13.63;;
54167;SDS011;40072;50.958;3.592;2022-10-31T02:17:15;35.20;;;15.75;;
54167;SDS011;40072;50.958;3.592;2022-10-31T02:25:21;25.85;;;14.25;;
54167;SDS011;40072;50.958;3.592;2022-10-31T02:28:29;30.83;;;15.57;;
54167;SDS011;40072;50.958;3.592;2022-10-31T02:31:08;27.55;;;15.13;;
54167;SDS011;40072;50.958;3.592;2022-10-31T02:33:49;29.00;;;14.07;;
54167;SDS011;40072;50.958;3.592;2022-10-31T02:36:42;29.30;;;13.77;;
54167;SDS011;40072;50.958;3.592;2022-10-31T02:39:21;22.48;;;12.65;;
54167;SDS011;40072;50.958;3.592;2022-10-31T02:41:54;20.50;;;12.35;;
54167;SDS011;40072;50.958;3.592;2022-10-31T02:44:41;22.35;;;12.05;;
54167;SDS011;40072;50.958;3.592;2022-10-31T02:47:29;28.17;;;14.45;;
54167;SDS011;40072;50.958;3.592;2022-10-31T02:50:17;21.20;;;9.85;;
54167;SDS011;40072;50.958;3.592;2022-10-31T02:52:49;17.75;;;10.73;;
54167;SDS011;40072;50.958;3.592;2022-10-31T02:57:53;18.15;;;8.32;;
54167;SDS011;40072;50.958;3.592;2022-10-31T03:00:40;15.10;;;8.98;;
54167;SDS011;40072;50.958;3.592;2022-10-31T03:03:15;19.80;;;11.10;;
54167;SDS011;40072;50.958;3.592;2022-10-31T03:05:51;23.83;;;13.02;;
54167;SDS011;40072;50.958;3.592;2022-10-31T03:08:35;19.30;;;11.60;;
54167;SDS011;40072;50.958;3.592;2022-10-31T03:11:07;22.67;;;12.13;;
54167;SDS011;40072;50.958;3.592;2022-10-31T03:16:05;21.42;;;12.40;;
54167;SDS011;40072;50.958;3.592;2022-10-31T03:18:39;27.85;;;12.88;;
54167;SDS011;40072;50.958;3.592;2022-10-31T03:23:39;30.80;;;15.52;;
54167;SDS011;40072;50.958;3.592;2022-10-31T03:26:07;29.98;;;14.55;;
54167;SDS011;40072;50.958;3.592;2022-10-31T03:28:36;30.05;;;15.77;;
54167;SDS011;40072;50.958;3.592;2022-10-31T03:31:10;34.33;;;16.42;;
54167;SDS011;40072;50.958;3.592;2022-10-31T03:33:40;38.00;;;17.02;;
54167;SDS011;40072;50.958;3.592;2022-10-31T03:36:08;34.85;;;16.00;;
54167;SDS011;40072;50.958;3.592;2022-10-31T03:38:36;32.92;;;16.95;;
54167;SDS011;40072;50.958;3.592;2022-10-31T03:41:04;28.85;;;16.05;;
54167;SDS011;40072;50.958;3.592;2022-10-31T03:43:32;31.52;;;14.18;;
54167;SDS011;40072;50.958;3.592;2022-10-31T03:46:02;21.67;;;11.10;;
54167;SDS011;40072;50.958;3.592;2022-10-31T03:48:28;30.65;;;14.93;;
54167;SDS011;40072;50.958;3.592;2022-10-31T03:53:42;29.65;;;14.10;;
54167;SDS011;40072;50.958;3.592;2022-10-31T03:56:19;23.60;;;12.02;;
54167;SDS011;40072;50.958;3.592;2022-10-31T03:58:57;17.98;;;10.93;;
54167;SDS011;40072;50.958;3.592;2022-10-31T04:01:30;17.83;;;10.63;;
54167;SDS011;40072;50.958;3.592;2022-10-31T04:03:59;20.60;;;11.77;;
54167;SDS011;40072;50.958;3.592;2022-10-31T04:06:26;16.25;;;9.73;;
54167;SDS011;40072;50.958;3.592;2022-10-31T04:08:56;26.25;;;12.50;;
54167;SDS011;40072;50.958;3.592;2022-10-31T04:11:28;24.92;;;12.27;;
54167;SDS011;40072;50.958;3.592;2022-10-31T04:13:57;36.95;;;16.75;;
54167;SDS011;40072;50.958;3.592;2022-10-31T04:16:25;37.15;;;15.93;;
54167;SDS011;40072;50.958;3.592;2022-10-31T04:18:51;26.80;;;14.00;;
54167;SDS011;40072;50.958;3.592;2022-10-31T04:21:17;31.92;;;16.52;;
54167;SDS011;40072;50.958;3.592;2022-10-31T04:23:43;33.72;;;18.15;;
54167;SDS011;40072;50.958;3.592;2022-10-31T04:26:12;29.65;;;14.38;;
54167;SDS011;40072;50.958;3.592;2022-10-31T04:28:38;33.55;;;16.73;;
54167;SDS011;40072;50.958;3.592;2022-10-31T04:31:04;41.08;;;18.35;;
54167;SDS011;40072;50.958;3.592;2022-10-31T04:33:29;31.25;;;16.42;;
54167;SDS011;40072;50.958;3.592;2022-10-31T04:35:55;36.53;;;17.73;;
54167;SDS011;40072;50.958;3.592;2022-10-31T04:38:21;25.95;;;14.80;;
54167;SDS011;40072;50.958;3.592;2022-10-31T04:40:46;26.42;;;14.95;;
54167;SDS011;40072;50.958;3.592;2022-10-31T04:43:12;23.65;;;12.80;;
54167;SDS011;40072;50.958;3.592;2022-10-31T04:45:37;23.50;;;12.10;;
54167;SDS011;40072;50.958;3.592;2022-10-31T04:48:03;21.88;;;12.35;;
54167;SDS011;40072;50.958;3.592;2022-10-31T04:50:29;24.45;;;14.63;;
54167;SDS011;40072;50.958;3.592;2022-10-31T04:52:55;26.85;;;14.63;;
54167;SDS011;40072;50.958;3.592;2022-10-31T04:55:20;28.23;;;15.13;;
54167;SDS011;40072;50.958;3.592;2022-10-31T04:57:47;34.42;;;17.83;;
54167;SDS011;40072;50.958;3.592;2022-10-31T05:00:14;31.38;;;15.95;;
54167;SDS011;40072;50.958;3.592;2022-10-31T05:02:45;33.67;;;15.80;;
54167;SDS011;40072;50.958;3.592;2022-10-31T05:05:13;33.78;;;16.05;;
54167;SDS011;40072;50.958;3.592;2022-10-31T05:07:43;32.40;;;15.18;;
54167;SDS011;40072;50.958;3.592;2022-10-31T05:10:10;31.25;;;12.85;;
54167;SDS011;40072;50.958;3.592;2022-10-31T05:12:37;21.38;;;11.77;;
54167;SDS011;40072;50.958;3.592;2022-10-31T05:15:04;24.50;;;12.00;;
54167;SDS011;40072;50.958;3.592;2022-10-31T05:17:30;21.55;;;12.60;;
54167;SDS011;40072;50.958;3.592;2022-10-31T05:19:56;17.48;;;11.07;;
54167;SDS011;40072;50.958;3.592;2022-10-31T05:22:22;20.45;;;12.27;;
54167;SDS011;40072;50.958;3.592;2022-10-31T05:24:48;22.08;;;12.23;;
54167;SDS011;40072;50.958;3.592;2022-10-31T05:27:13;23.52;;;13.25;;
54167;SDS011;40072;50.958;3.592;2022-10-31T05:29:39;23.58;;;12.52;;
54167;SDS011;40072;50.958;3.592;2022-10-31T05:32:04;17.10;;;10.00;;
54167;SDS011;40072;50.958;3.592;2022-10-31T05:34:30;21.00;;;11.90;;
54167;SDS011;40072;50.958;3.592;2022-10-31T05:36:56;23.15;;;12.73;;
54167;SDS011;40072;50.958;3.592;2022-10-31T05:39:21;29.30;;;15.02;;
54167;SDS011;40072;50.958;3.592;2022-10-31T05:41:47;27.95;;;14.45;;
54167;SDS011;40072;50.958;3.592;2022-10-31T05:44:12;33.35;;;15.13;;
54167;SDS011;40072;50.958;3.592;2022-10-31T05:46:38;27.15;;;14.48;;
54167;SDS011;40072;50.958;3.592;2022-10-31T05:49:04;17.30;;;11.38;;
54167;SDS011;40072;50.958;3.592;2022-10-31T05:51:29;17.98;;;11.75;;
54167;SDS011;40072;50.958;3.592;2022-10-31T05:53:55;26.05;;;13.35;;
54167;SDS011;40072;50.958;3.592;2022-10-31T05:56:20;27.35;;;14.30;;
54167;SDS011;40072;50.958;3.592;2022-10-31T05:58:46;16.38;;;10.48;;
54167;SDS011;40072;50.958;3.592;2022-10-31T06:01:12;20.42;;;10.75;;
54167;SDS011;40072;50.958;3.592;2022-10-31T06:03:37;15.48;;;9.90;;
54167;SDS011;40072;50.958;3.592;2022-10-31T06:06:03;24.95;;;11.15;;
54167;SDS011;40072;50.958;3.592;2022-10-31T06:08:29;32.97;;;15.32;;
54167;SDS011;40072;50.958;3.592;2022-10-31T06:10:54;41.35;;;17.33;;
54167;SDS011;40072;50.958;3.592;2022-10-31T06:13:20;35.83;;;17.75;;
54167;SDS011;40072;50.958;3.592;2022-10-31T06:15:46;47.40;;;19.67;;
54167;SDS011;40072;50.958;3.592;2022-10-31T06:18:11;48.20;;;20.50;;
54167;SDS011;40072;50.958;3.592;2022-10-31T06:20:37;41.10;;;18.70;;
54167;SDS011;40072;50.958;3.592;2022-10-31T06:23:03;48.22;;;20.83;;
54167;SDS011;40072;50.958;3.592;2022-10-31T06:25:29;46.60;;;21.38;;
54167;SDS011;40072;50.958;3.592;2022-10-31T06:27:55;48.00;;;22.35;;
54167;SDS011;40072;50.958;3.592;2022-10-31T06:30:21;58.35;;;22.30;;
54167;SDS011;40072;50.958;3.592;2022-10-31T06:32:47;49.55;;;23.02;;
54167;SDS011;40072;50.958;3.592;2022-10-31T06:35:12;46.78;;;23.10;;
54167;SDS011;40072;50.958;3.592;2022-10-31T06:37:38;44.08;;;22.45;;
54167;SDS011;40072;50.958;3.592;2022-10-31T06:40:04;45.70;;;22.08;;
54167;SDS011;40072;50.958;3.592;2022-10-31T06:42:30;56.63;;;22.95;;
54167;SDS011;40072;50.958;3.592;2022-10-31T06:44:55;40.00;;;19.25;;
54167;SDS011;40072;50.958;3.592;2022-10-31T06:47:21;41.55;;;21.08;;
54167;SDS011;40072;50.958;3.592;2022-10-31T06:49:46;42.17;;;21.27;;
54167;SDS011;40072;50.958;3.592;2022-10-31T06:52:12;44.85;;;22.00;;
54167;SDS011;40072;50.958;3.592;2022-10-31T06:54:38;43.50;;;22.33;;
54167;SDS011;40072;50.958;3.592;2022-10-31T06:57:03;42.72;;;20.95;;
54167;SDS011;40072;50.958;3.592;2022-10-31T06:59:29;42.25;;;21.38;;
54167;SDS011;40072;50.958;3.592;2022-10-31T07:01:55;49.72;;;23.58;;
54167;SDS011;40072;50.958;3.592;2022-10-31T07:04:22;46.80;;;23.25;;
54167;SDS011;40072;50.958;3.592;2022-10-31T07:06:50;46.05;;;22.48;;
54167;SDS011;40072;50.958;3.592;2022-10-31T07:09:16;47.77;;;23.23;;
54167;SDS011;40072;50.958;3.592;2022-10-31T07:11:42;45.63;;;24.25;;
54167;SDS011;40072;50.958;3.592;2022-10-31T07:14:08;49.72;;;24.52;;
54167;SDS011;40072;50.958;3.592;2022-10-31T07:16:33;54.65;;;24.10;;
54167;SDS011;40072;50.958;3.592;2022-10-31T07:18:59;50.85;;;25.17;;
54167;SDS011;40072;50.958;3.592;2022-10-31T07:21:24;46.25;;;25.60;;
54167;SDS011;40072;50.958;3.592;2022-10-31T07:23:50;48.30;;;23.80;;
54167;SDS011;40072;50.958;3.592;2022-10-31T07:26:16;34.35;;;21.73;;
54167;SDS011;40072;50.958;3.592;2022-10-31T07:28:41;42.80;;;23.38;;
54167;SDS011;40072;50.958;3.592;2022-10-31T07:31:07;32.47;;;19.48;;
54167;SDS011;40072;50.958;3.592;2022-10-31T07:33:33;42.65;;;22.20;;
54167;SDS011;40072;50.958;3.592;2022-10-31T07:35:58;35.75;;;20.85;;
54167;SDS011;40072;50.958;3.592;2022-10-31T07:38:25;42.22;;;21.33;;
54167;SDS011;40072;50.958;3.592;2022-10-31T07:40:51;37.25;;;19.60;;
54167;SDS011;40072;50.958;3.592;2022-10-31T07:43:20;37.20;;;21.05;;
54167;SDS011;40072;50.958;3.592;2022-10-31T07:45:52;39.03;;;21.00;;
54167;SDS011;40072;50.958;3.592;2022-10-31T07:48:18;43.63;;;20.70;;
54167;SDS011;40072;50.958;3.592;2022-10-31T07:50:44;40.00;;;21.52;;
54167;SDS011;40072;50.958;3.592;2022-10-31T07:53:11;37.20;;;20.98;;
54167;SDS011;40072;50.958;3.592;2022-10-31T07:55:38;35.63;;;21.63;;
54167;SDS011;40072;50.958;3.592;2022-10-31T08:00:31;36.35;;;19.02;;
54167;SDS011;40072;50.958;3.592;2022-10-31T08:02:59;38.15;;;20.35;;
54167;SDS011;40072;50.958;3.592;2022-10-31T08:05:26;38.72;;;20.65;;
54167;SDS011;40072;50.958;3.592;2022-10-31T08:07:51;30.88;;;19.33;;
54167;SDS011;40072;50.958;3.592;2022-10-31T08:10:17;31.80;;;19.65;;
54167;SDS011;40072;50.958;3.592;2022-10-31T08:12:43;31.00;;;18.08;;
54167;SDS011;40072;50.958;3.592;2022-10-31T08:15:09;31.63;;;18.25;;
54167;SDS011;40072;50.958;3.592;2022-10-31T08:17:35;29.55;;;18.55;;
54167;SDS011;40072;50.958;3.592;2022-10-31T08:20:01;26.27;;;17.30;;
54167;SDS011;40072;50.958;3.592;2022-10-31T08:22:28;25.50;;;16.10;;
54167;SDS011;40072;50.958;3.592;2022-10-31T08:24:53;23.20;;;15.93;;
54167;SDS011;40072;50.958;3.592;2022-10-31T08:27:19;19.25;;;14.00;;
54167;SDS011;40072;50.958;3.592;2022-10-31T08:29:45;20.20;;;13.77;;
54167;SDS011;40072;50.958;3.592;2022-10-31T08:32:10;22.80;;;13.93;;
54167;SDS011;40072;50.958;3.592;2022-10-31T08:34:36;27.20;;;15.02;;
54167;SDS011;40072;50.958;3.592;2022-10-31T08:37:01;17.92;;;13.93;;
54167;SDS011;40072;50.958;3.592;2022-10-31T08:39:27;19.17;;;12.88;;
54167;SDS011;40072;50.958;3.592;2022-10-31T08:41:52;18.77;;;13.20;;
54167;SDS011;40072;50.958;3.592;2022-10-31T08:44:18;22.58;;;13.98;;
54167;SDS011;40072;50.958;3.592;2022-10-31T08:46:44;21.88;;;12.15;;
54167;SDS011;40072;50.958;3.592;2022-10-31T08:49:09;19.70;;;12.50;;
54167;SDS011;40072;50.958;3.592;2022-10-31T08:51:35;22.48;;;11.27;;
54167;SDS011;40072;50.958;3.592;2022-10-31T08:54:01;17.27;;;11.35;;
54167;SDS011;40072;50.958;3.592;2022-10-31T08:56:26;18.33;;;11.32;;
54167;SDS011;40072;50.958;3.592;2022-10-31T08:58:52;16.10;;;10.90;;
54167;SDS011;40072;50.958;3.592;2022-10-31T09:01:18;20.67;;;10.88;;
54167;SDS011;40072;50.958;3.592;2022-10-31T09:03:44;12.60;;;10.40;;
54167;SDS011;40072;50.958;3.592;2022-10-31T09:06:09;16.33;;;10.32;;
54167;SDS011;40072;50.958;3.592;2022-10-31T09:08:35;13.70;;;9.85;;
54167;SDS011;40072;50.958;3.592;2022-10-31T09:11:01;17.63;;;10.55;;
54167;SDS011;40072;50.958;3.592;2022-10-31T09:13:28;16.35;;;9.48;;
54167;SDS011;40072;50.958;3.592;2022-10-31T09:15:55;13.45;;;9.43;;
54167;SDS011;40072;50.958;3.592;2022-10-31T09:18:22;16.35;;;10.52;;
54167;SDS011;40072;50.958;3.592;2022-10-31T09:20:48;14.18;;;10.10;;
54167;SDS011;40072;50.958;3.592;2022-10-31T09:23:15;15.95;;;10.55;;
54167;SDS011;40072;50.958;3.592;2022-10-31T09:25:42;15.68;;;11.70;;
54167;SDS011;40072;50.958;3.592;2022-10-31T09:28:10;19.88;;;11.20;;
54167;SDS011;40072;50.958;3.592;2022-10-31T09:30:37;22.45;;;11.93;;
54167;SDS011;40072;50.958;3.592;2022-10-31T09:33:04;21.70;;;12.52;;
54167;SDS011;40072;50.958;3.592;2022-10-31T09:35:32;18.33;;;11.82;;
54167;SDS011;40072;50.958;3.592;2022-10-31T09:37:58;21.83;;;11.68;;
54167;SDS011;40072;50.958;3.592;2022-10-31T09:40:47;19.63;;;11.43;;
54167;SDS011;40072;50.958;3.592;2022-10-31T09:43:34;19.02;;;11.98;;
54167;SDS011;40072;50.958;3.592;2022-10-31T09:51:43;17.48;;;9.93;;
54167;SDS011;40072;50.958;3.592;2022-10-31T09:54:23;15.63;;;9.73;;
54167;SDS011;40072;50.958;3.592;2022-10-31T09:57:00;15.95;;;10.60;;
54167;SDS011;40072;50.958;3.592;2022-10-31T09:59:31;19.10;;;9.48;;
54167;SDS011;40072;50.958;3.592;2022-10-31T10:05:24;18.55;;;8.73;;
54167;SDS011;40072;50.958;3.592;2022-10-31T10:10:30;12.18;;;8.02;;
54167;SDS011;40072;50.958;3.592;2022-10-31T10:18:43;15.00;;;7.95;;
54167;SDS011;40072;50.958;3.592;2022-10-31T10:26:35;16.27;;;8.88;;
54167;SDS011;40072;50.958;3.592;2022-10-31T10:34:40;13.43;;;6.55;;
54167;SDS011;40072;50.958;3.592;2022-10-31T10:37:18;16.45;;;6.40;;
54167;SDS011;40072;50.958;3.592;2022-10-31T10:39:56;13.40;;;6.68;;
54167;SDS011;40072;50.958;3.592;2022-10-31T10:42:30;11.10;;;5.90;;
54167;SDS011;40072;50.958;3.592;2022-10-31T10:45:16;11.10;;;5.65;;
54167;SDS011;40072;50.958;3.592;2022-10-31T10:48:06;12.32;;;6.28;;
54167;SDS011;40072;50.958;3.592;2022-10-31T10:50:41;11.38;;;6.03;;
54167;SDS011;40072;50.958;3.592;2022-10-31T10:53:22;14.25;;;5.95;;
54167;SDS011;40072;50.958;3.592;2022-10-31T10:58:45;9.77;;;6.15;;
54167;SDS011;40072;50.958;3.592;2022-10-31T11:01:12;15.98;;;6.35;;
54167;SDS011;40072;50.958;3.592;2022-10-31T11:03:39;14.07;;;6.63;;
54167;SDS011;40072;50.958;3.592;2022-10-31T11:06:15;13.25;;;6.95;;
54167;SDS011;40072;50.958;3.592;2022-10-31T11:08:42;10.65;;;6.90;;
54167;SDS011;40072;50.958;3.592;2022-10-31T11:11:11;12.35;;;6.00;;
54167;SDS011;40072;50.958;3.592;2022-10-31T11:13:58;16.52;;;6.57;;
54167;SDS011;40072;50.958;3.592;2022-10-31T11:16:32;8.90;;;7.00;;
54167;SDS011;40072;50.958;3.592;2022-10-31T11:21:53;11.23;;;7.10;;
54167;SDS011;40072;50.958;3.592;2022-10-31T11:24:25;12.00;;;7.55;;
54167;SDS011;40072;50.958;3.592;2022-10-31T11:27:02;13.88;;;7.15;;
54167;SDS011;40072;50.958;3.592;2022-10-31T11:29:37;10.90;;;6.68;;
54167;SDS011;40072;50.958;3.592;2022-10-31T11:32:02;11.98;;;6.15;;
54167;SDS011;40072;50.958;3.592;2022-10-31T11:36:59;13.73;;;6.45;;
54167;SDS011;40072;50.958;3.592;2022-10-31T11:39:41;11.95;;;5.78;;
54167;SDS011;40072;50.958;3.592;2022-10-31T11:42:18;12.75;;;7.00;;
54167;SDS011;40072;50.958;3.592;2022-10-31T11:44:46;17.75;;;6.53;;
54167;SDS011;40072;50.958;3.592;2022-10-31T11:47:13;12.32;;;6.25;;
54167;SDS011;40072;50.958;3.592;2022-10-31T11:49:42;10.43;;;6.03;;
54167;SDS011;40072;50.958;3.592;2022-10-31T11:52:27;11.50;;;6.18;;
54167;SDS011;40072;50.958;3.592;2022-10-31T11:55:01;8.60;;;5.50;;
54167;SDS011;40072;50.958;3.592;2022-10-31T11:57:48;13.32;;;6.07;;
54167;SDS011;40072;50.958;3.592;2022-10-31T12:00:26;17.70;;;6.35;;
54167;SDS011;40072;50.958;3.592;2022-10-31T12:05:43;11.57;;;6.07;;
54167;SDS011;40072;50.958;3.592;2022-10-31T12:08:11;12.35;;;6.55;;
54167;SDS011;40072;50.958;3.592;2022-10-31T12:10:45;14.60;;;6.05;;
54167;SDS011;40072;50.958;3.592;2022-10-31T12:13:32;13.90;;;6.53;;
54167;SDS011;40072;50.958;3.592;2022-10-31T12:16:10;13.40;;;6.97;;
54167;SDS011;40072;50.958;3.592;2022-10-31T12:19:22;16.40;;;6.57;;
54167;SDS011;40072;50.958;3.592;2022-10-31T12:21:59;15.02;;;7.30;;
54167;SDS011;40072;50.958;3.592;2022-10-31T12:24:47;14.98;;;6.72;;
54167;SDS011;40072;50.958;3.592;2022-10-31T12:27:51;12.18;;;7.18;;
54167;SDS011;40072;50.958;3.592;2022-10-31T12:30:21;14.00;;;7.65;;
54167;SDS011;40072;50.958;3.592;2022-10-31T12:33:24;12.80;;;7.05;;
54167;SDS011;40072;50.958;3.592;2022-10-31T12:41:45;14.38;;;7.45;;
54167;SDS011;40072;50.958;3.592;2022-10-31T12:50:27;13.35;;;7.20;;
54167;SDS011;40072;50.958;3.592;2022-10-31T13:01:50;13.95;;;7.57;;
54167;SDS011;40072;50.958;3.592;2022-10-31T13:07:15;14.80;;;8.10;;
54167;SDS011;40072;50.958;3.592;2022-10-31T13:10:01;17.15;;;8.40;;
54167;SDS011;40072;50.958;3.592;2022-10-31T13:12:34;18.88;;;8.25;;
54167;SDS011;40072;50.958;3.592;2022-10-31T13:15:18;12.15;;;7.32;;
54167;SDS011;40072;50.958;3.592;2022-10-31T13:18:05;11.80;;;7.28;;
54167;SDS011;40072;50.958;3.592;2022-10-31T13:20:49;18.73;;;7.97;;
54167;SDS011;40072;50.958;3.592;2022-10-31T13:23:24;21.35;;;7.93;;
54167;SDS011;40072;50.958;3.592;2022-10-31T13:25:54;15.77;;;7.15;;
54167;SDS011;40072;50.958;3.592;2022-10-31T13:28:43;10.90;;;6.82;;
54167;SDS011;40072;50.958;3.592;2022-10-31T13:31:24;15.32;;;7.70;;
54167;SDS011;40072;50.958;3.592;2022-10-31T13:33:56;12.63;;;7.20;;
54167;SDS011;40072;50.958;3.592;2022-10-31T13:36:45;15.23;;;8.05;;
54167;SDS011;40072;50.958;3.592;2022-10-31T13:39:32;20.35;;;7.43;;
54167;SDS011;40072;50.958;3.592;2022-10-31T13:42:08;15.10;;;8.10;;
54167;SDS011;40072;50.958;3.592;2022-10-31T13:44:42;18.92;;;6.95;;
54167;SDS011;40072;50.958;3.592;2022-10-31T13:52:51;17.52;;;8.55;;
54167;SDS011;40072;50.958;3.592;2022-10-31T13:58:25;14.50;;;8.48;;
54167;SDS011;40072;50.958;3.592;2022-10-31T14:03:55;16.13;;;8.00;;
54167;SDS011;40072;50.958;3.592;2022-10-31T14:06:22;17.38;;;8.27;;
54167;SDS011;40072;50.958;3.592;2022-10-31T14:08:59;22.80;;;7.80;;
54167;SDS011;40072;50.958;3.592;2022-10-31T14:11:26;17.45;;;7.57;;
54167;SDS011;40072;50.958;3.592;2022-10-31T14:13:53;13.98;;;7.72;;
54167;SDS011;40072;50.958;3.592;2022-10-31T14:16:25;16.55;;;8.45;;
54167;SDS011;40072;50.958;3.592;2022-10-31T14:18:58;15.23;;;7.63;;
54167;SDS011;40072;50.958;3.592;2022-10-31T14:23:50;21.55;;;8.38;;
54167;SDS011;40072;50.958;3.592;2022-10-31T14:28:50;16.52;;;9.35;;
54167;SDS011;40072;50.958;3.592;2022-10-31T14:45:42;15.70;;;8.60;;
54167;SDS011;40072;50.958;3.592;2022-10-31T14:51:24;17.50;;;8.13;;
54167;SDS011;40072;50.958;3.592;2022-10-31T14:53:58;22.10;;;8.95;;
54167;SDS011;40072;50.958;3.592;2022-10-31T14:56:26;14.63;;;8.73;;
54167;SDS011;40072;50.958;3.592;2022-10-31T14:59:01;15.05;;;8.50;;
54167;SDS011;40072;50.958;3.592;2022-10-31T15:01:30;17.77;;;8.18;;
54167;SDS011;40072;50.958;3.592;2022-10-31T15:04:05;19.42;;;9.85;;
54167;SDS011;40072;50.958;3.592;2022-10-31T15:07:03;14.55;;;8.35;;
54167;SDS011;40072;50.958;3.592;2022-10-31T15:09:36;18.05;;;9.15;;
54167;SDS011;40072;50.958;3.592;2022-10-31T15:14:54;23.35;;;9.63;;
54167;SDS011;40072;50.958;3.592;2022-10-31T15:17:24;16.30;;;9.82;;
54167;SDS011;40072;50.958;3.592;2022-10-31T15:19:51;16.77;;;9.98;;
54167;SDS011;40072;50.958;3.592;2022-10-31T15:22:17;19.17;;;10.45;;
54167;SDS011;40072;50.958;3.592;2022-10-31T15:24:45;16.70;;;9.98;;
54167;SDS011;40072;50.958;3.592;2022-10-31T15:27:14;20.83;;;10.93;;
54167;SDS011;40072;50.958;3.592;2022-10-31T15:29:54;22.67;;;10.25;;
54167;SDS011;40072;50.958;3.592;2022-10-31T15:32:28;19.52;;;11.52;;
54167;SDS011;40072;50.958;3.592;2022-10-31T15:34:54;22.90;;;11.40;;
54167;SDS011;40072;50.958;3.592;2022-10-31T15:37:23;25.20;;;11.20;;
54167;SDS011;40072;50.958;3.592;2022-10-31T15:39:50;17.47;;;10.53;;
54167;SDS011;40072;50.958;3.592;2022-10-31T15:44:44;26.17;;;12.65;;
54167;SDS011;40072;50.958;3.592;2022-10-31T15:47:18;21.58;;;12.00;;
54167;SDS011;40072;50.958;3.592;2022-10-31T15:49:48;24.30;;;13.05;;
54167;SDS011;40072;50.958;3.592;2022-10-31T15:55:00;20.63;;;13.05;;
54167;SDS011;40072;50.958;3.592;2022-10-31T15:57:29;20.42;;;13.45;;
54167;SDS011;40072;50.958;3.592;2022-10-31T15:59:55;22.83;;;13.15;;
54167;SDS011;40072;50.958;3.592;2022-10-31T16:02:26;22.10;;;14.13;;
54167;SDS011;40072;50.958;3.592;2022-10-31T16:07:26;29.98;;;14.70;;
54167;SDS011;40072;50.958;3.592;2022-10-31T16:12:42;20.45;;;12.98;;
54167;SDS011;40072;50.958;3.592;2022-10-31T16:15:14;24.65;;;14.23;;
54167;SDS011;40072;50.958;3.592;2022-10-31T16:17:42;30.83;;;15.15;;
54167;SDS011;40072;50.958;3.592;2022-10-31T16:20:28;27.23;;;14.80;;
54167;SDS011;40072;50.958;3.592;2022-10-31T16:22:57;33.47;;;14.50;;
54167;SDS011;40072;50.958;3.592;2022-10-31T16:25:34;26.92;;;14.82;;
54167;SDS011;40072;50.958;3.592;2022-10-31T16:28:13;29.85;;;16.00;;
54167;SDS011;40072;50.958;3.592;2022-10-31T16:30:45;21.85;;;12.77;;
54167;SDS011;40072;50.958;3.592;2022-10-31T16:33:25;26.35;;;13.82;;
54167;SDS011;40072;50.958;3.592;2022-10-31T16:38:52;21.92;;;12.43;;
54167;SDS011;40072;50.958;3.592;2022-10-31T16:41:20;24.02;;;11.90;;
54167;SDS011;40072;50.958;3.592;2022-10-31T16:43:47;20.63;;;11.85;;
54167;SDS011;40072;50.958;3.592;2022-10-31T16:46:23;24.73;;;10.65;;
54167;SDS011;40072;50.958;3.592;2022-10-31T16:48:50;21.45;;;10.52;;
54167;SDS011;40072;50.958;3.592;2022-10-31T16:51:16;24.70;;;10.57;;
54167;SDS011;40072;50.958;3.592;2022-10-31T16:53:42;22.60;;;9.60;;
54167;SDS011;40072;50.958;3.592;2022-10-31T16:56:14;17.73;;;9.70;;
54167;SDS011;40072;50.958;3.592;2022-10-31T16:58:42;20.23;;;8.50;;
54167;SDS011;40072;50.958;3.592;2022-10-31T17:01:08;17.45;;;9.35;;
54167;SDS011;40072;50.958;3.592;2022-10-31T17:03:36;25.48;;;8.13;;
54167;SDS011;40072;50.958;3.592;2022-10-31T17:06:02;15.05;;;7.75;;
54167;SDS011;40072;50.958;3.592;2022-10-31T17:08:27;25.27;;;7.20;;